Time;durP1;ratioP1;P1;durP2;ratioP2;P2;SDS_P1;SDS_P2;PMS_P1;PMS_P2;Temp;Humidity;BMP_temperature;BMP_pressure;BME280_temperature;BME280_humidity;BME280_pressure;Samples;Min_cycle;Max_cycle;Signal;HPM_P1;HPM_P2
2022/09/06 00:01:59;;;;;;;4.43;3.03;;;;;;;17.44;51.96;94535.28;4959469;28;20041;-79
2022/09/06 00:04:24;;;;;;;3.00;2.70;;;;;;;17.33;51.80;94516.13;4956038;28;20031;-81
2022/09/06 00:06:49;;;;;;;3.42;3.08;;;;;;;17.16;51.99;94498.34;4963541;28;20027;-80
2022/09/06 00:09:15;;;;;;;4.15;2.70;;;;;;;16.68;52.15;94434.63;4974059;28;20081;-80
2022/09/06 00:11:40;;;;;;;4.53;3.15;;;;;;;17.22;52.32;94515.03;4974897;28;20030;-79
2022/09/06 00:14:06;;;;;;;3.65;2.83;;;;;;;17.43;52.20;94549.84;4960285;28;20022;-81
2022/09/06 00:16:31;;;;;;;4.93;2.92;;;;;;;17.45;52.19;94558.38;4956963;28;20038;-81
2022/09/06 00:18:56;;;;;;;4.82;3.20;;;;;;;17.22;51.96;94516.91;4973928;28;20030;-79
2022/09/06 00:21:25;;;;;;;3.92;3.33;;;;;;;17.47;52.14;94550.72;4955817;28;20027;-79
2022/09/06 00:23:51;;;;;;;3.47;2.60;;;;;;;17.20;52.05;94511.13;4975222;28;20026;-79
2022/09/06 00:26:17;;;;;;;3.97;2.95;;;;;;;17.39;52.06;94546.28;4974765;28;20022;-79
2022/09/06 00:28:42;;;;;;;4.22;3.08;;;;;;;17.33;52.14;94531.47;4974186;28;20037;-78
2022/09/06 00:31:09;;;;;;;3.30;2.70;;;;;;;17.39;52.20;94539.00;4974402;28;20030;-79
2022/09/06 00:33:34;;;;;;;4.20;3.50;;;;;;;17.38;52.28;94553.53;4973577;28;20148;-80
2022/09/06 00:36:00;;;;;;;5.40;2.67;;;;;;;17.36;52.24;94545.03;4974899;28;20667;-80
2022/09/06 00:38:25;;;;;;;3.42;2.67;;;;;;;17.33;52.10;94545.72;4972842;28;20537;-80
2022/09/06 00:40:51;;;;;;;3.13;2.42;;;;;;;17.31;52.50;94544.47;4973691;28;20028;-78
2022/09/06 00:43:16;;;;;;;3.35;2.50;;;;;;;16.95;52.43;94489.59;4964387;28;20085;-79
2022/09/06 00:45:42;;;;;;;5.18;3.10;;;;;;;16.99;52.17;94498.56;4972897;28;20080;-77
2022/09/06 00:48:07;;;;;;;3.30;2.55;;;;;;;17.15;52.56;94523.66;4955935;28;20092;-77
2022/09/06 00:50:33;;;;;;;4.18;3.13;;;;;;;17.11;52.47;94522.72;4972955;28;20030;-77
2022/09/06 00:52:58;;;;;;;4.45;3.10;;;;;;;17.11;52.48;94520.03;4973607;28;20517;-80
2022/09/06 00:55:25;;;;;;;4.05;3.15;;;;;;;17.01;52.45;94512.41;4973223;28;20042;-81
2022/09/06 00:57:51;;;;;;;5.40;3.38;;;;;;;16.89;52.65;94493.63;4964635;28;20483;-79
2022/09/06 01:00:19;;;;;;;2.90;2.55;;;;;;;17.09;52.60;94541.09;4973035;28;20049;-81
2022/09/06 01:02:45;;;;;;;4.13;2.55;;;;;;;16.86;52.69;94512.34;4973048;28;20153;-79
2022/09/06 01:05:12;;;;;;;4.10;3.20;;;;;;;16.96;52.47;94530.69;4972306;28;20050;-81
2022/09/06 01:08:13;;;;;;;6.45;3.20;;;;;;;16.99;52.48;94528.09;4972510;28;20072;-79
2022/09/06 01:10:49;;;;;;;5.90;3.92;;;;;;;17.04;52.57;94544.00;4973050;28;20070;-81
2022/09/06 01:13:21;;;;;;;4.05;3.00;;;;;;;17.04;52.92;94546.69;4971990;28;20038;-81
2022/09/06 01:16:04;;;;;;;3.60;2.83;;;;;;;17.04;52.63;94538.63;4958068;28;20053;-81
2022/09/06 01:18:42;;;;;;;4.13;2.83;;;;;;;17.03;52.62;94547.81;4973305;28;20644;-80
2022/09/06 01:22:01;;;;;;;4.20;2.75;;;;;;;17.04;52.65;94548.59;4973189;28;20035;-79
2022/09/06 01:24:48;;;;;;;4.07;2.88;;;;;;;17.01;52.75;94550.03;4934774;28;20042;-82
2022/09/06 01:27:41;;;;;;;5.63;3.00;;;;;;;17.06;52.54;94546.38;4973480;28;21604;-80
2022/09/06 01:30:11;;;;;;;4.40;3.25;;;;;;;17.02;52.54;94538.19;4972191;28;20034;-81
2022/09/06 01:33:10;;;;;;;3.22;2.70;;;;;;;17.04;52.57;94538.63;4972324;28;20525;-81
2022/09/06 01:35:55;;;;;;;4.15;2.50;;;;;;;17.04;52.38;94541.31;4971787;28;20036;-80
2022/09/06 01:38:20;;;;;;;4.43;2.90;;;;;;;16.78;52.13;94484.44;4954435;28;20058;-78
2022/09/06 01:40:46;;;;;;;5.15;2.45;;;;;;;16.80;52.21;94484.91;4971629;28;20022;-81
2022/09/06 01:43:25;;;;;;;3.10;2.65;;;;;;;17.07;52.35;94527.19;4972018;28;20027;-81
2022/09/06 01:46:06;;;;;;;3.70;2.63;;;;;;;17.02;52.24;94524.75;4973294;28;20018;-80
2022/09/06 01:48:46;;;;;;;3.30;2.67;;;;;;;17.03;52.42;94520.16;4968538;28;20683;-80
2022/09/06 01:51:18;;;;;;;5.15;2.78;;;;;;;16.96;52.08;94515.34;4973117;28;20034;-79
2022/09/06 01:54:12;;;;;;;4.20;2.67;;;;;;;16.91;52.31;94518.28;4972049;28;20439;-79
2022/09/06 01:57:07;;;;;;;3.90;2.30;;;;;;;16.91;52.31;94517.47;4966841;28;20049;-80
2022/09/06 01:59:52;;;;;;;5.15;2.63;;;;;;;16.92;52.47;94511.75;4973790;28;20029;-80
2022/09/06 02:02:28;;;;;;;3.30;2.83;;;;;;;16.61;52.27;94471.25;4968229;28;20080;-81
2022/09/06 02:05:03;;;;;;;2.97;2.58;;;;;;;16.71;52.21;94494.97;4972136;28;20019;-81
2022/09/06 02:07:31;;;;;;;3.38;2.85;;;;;;;16.74;52.45;94488.91;4970941;28;20054;-79
2022/09/06 02:10:07;;;;;;;2.45;2.10;;;;;;;16.75;52.29;94503.94;4971616;28;20110;-81
2022/09/06 02:12:38;;;;;;;3.00;2.72;;;;;;;16.79;51.98;94510.19;4970877;28;20035;-79
2022/09/06 02:15:14;;;;;;;4.50;2.83;;;;;;;16.77;52.43;94509.72;4970924;28;20057;-80
2022/09/06 02:17:47;;;;;;;3.08;2.65;;;;;;;16.49;52.32;94466.63;4971618;28;20034;-79
2022/09/06 02:20:20;;;;;;;3.30;2.10;;;;;;;16.70;52.52;94510.31;4970951;28;20022;-78
2022/09/06 02:22:48;;;;;;;4.18;3.10;;;;;;;16.53;52.71;94482.84;4956513;28;20027;-79
2022/09/06 02:25:25;;;;;;;4.10;2.58;;;;;;;16.71;52.49;94514.56;4971809;28;20425;-80
2022/09/06 02:27:50;;;;;;;3.88;2.80;;;;;;;16.73;52.43;94508.84;4972083;28;20027;-79
2022/09/06 02:30:16;;;;;;;3.58;2.95;;;;;;;16.65;52.45;94493.63;4970291;28;20026;-79
2022/09/06 02:32:59;;;;;;;4.43;2.95;;;;;;;16.64;52.61;94502.78;4972286;28;20053;-81
2022/09/06 02:35:25;;;;;;;3.65;2.97;;;;;;;16.68;52.54;94514.41;4969685;28;20023;-81
2022/09/06 02:37:50;;;;;;;2.92;2.40;;;;;;;16.61;52.60;94508.84;4972918;28;20031;-79
2022/09/06 02:40:17;;;;;;;4.43;2.78;;;;;;;16.33;52.52;94464.94;4971748;28;20022;-80
2022/09/06 02:42:42;;;;;;;3.28;2.40;;;;;;;16.65;52.73;94520.47;4972885;28;20359;-80
2022/09/06 02:45:08;;;;;;;5.22;2.67;;;;;;;16.42;52.77;94484.41;4972269;28;20022;-81
2022/09/06 02:47:34;;;;;;;3.35;2.60;;;;;;;16.50;52.70;94507.69;4971951;28;20038;-80
2022/09/06 02:49:59;;;;;;;3.50;2.78;;;;;;;16.15;52.77;94454.34;4971303;28;20068;-80
2022/09/06 02:52:25;;;;;;;3.30;2.58;;;;;;;16.49;52.96;94511.50;4953166;28;20578;-80
2022/09/06 02:54:51;;;;;;;4.03;3.00;;;;;;;16.59;52.68;94522.59;4971453;28;20058;-79
2022/09/06 02:57:16;;;;;;;3.97;3.05;;;;;;;16.30;52.78;94477.09;4969774;28;21025;-81
2022/09/06 02:59:42;;;;;;;3.65;2.95;;;;;;;16.63;52.75;94514.63;4956993;28;20031;-80
2022/09/06 03:02:07;;;;;;;3.53;3.03;;;;;;;16.26;52.72;94468.13;4969760;28;20030;-78
2022/09/06 03:04:33;;;;;;;4.53;2.47;;;;;;;16.60;52.73;94524.16;4970706;28;20129;-79
2022/09/06 03:06:58;;;;;;;3.22;2.85;;;;;;;16.36;52.89;94485.75;4959479;28;20037;-79
2022/09/06 03:09:24;;;;;;;4.32;2.67;;;;;;;16.48;53.01;94509.91;4970765;28;20030;-79
2022/09/06 03:11:49;;;;;;;4.95;2.85;;;;;;;16.28;52.76;94473.97;4971662;28;20102;-79
2022/09/06 03:14:15;;;;;;;2.97;2.63;;;;;;;16.33;53.00;94476.44;4969839;28;20100;-80
2022/09/06 03:16:41;;;;;;;3.95;3.03;;;;;;;16.40;52.75;94484.75;4970980;28;20781;-79
2022/09/06 03:19:07;;;;;;;5.93;3.30;;;;;;;16.56;52.93;94512.53;4971904;28;20046;-78
2022/09/06 03:21:32;;;;;;;3.03;2.63;;;;;;;16.38;52.87;94500.38;4970271;28;20165;-79
2022/09/06 03:23:58;;;;;;;6.38;3.20;;;;;;;16.42;53.12;94505.91;4970824;28;20034;-79
2022/09/06 03:26:23;;;;;;;4.07;2.97;;;;;;;16.40;53.07;94510.81;4972602;28;20029;-80
2022/09/06 03:28:49;;;;;;;3.53;2.40;;;;;;;16.44;53.10;94519.75;4971975;28;20030;-79
2022/09/06 03:31:15;;;;;;;5.30;2.95;;;;;;;16.28;52.97;94500.81;4952999;28;20601;-81
2022/09/06 03:33:40;;;;;;;3.58;3.00;;;;;;;16.40;52.96;94524.22;4971098;28;20038;-79
2022/09/06 03:36:06;;;;;;;3.97;2.90;;;;;;;16.39;52.93;94523.44;4970348;28;20357;-79
2022/09/06 03:38:32;;;;;;;4.50;2.95;;;;;;;16.36;52.90;94524.13;4957247;28;20038;-80
2022/09/06 03:40:57;;;;;;;3.60;2.75;;;;;;;16.26;53.03;94519.91;4969931;28;20030;-81
2022/09/06 03:43:24;;;;;;;4.13;2.58;;;;;;;16.40;53.02;94540.34;4969881;28;20053;-81
2022/09/06 03:45:52;;;;;;;4.03;2.85;;;;;;;16.11;52.89;94503.66;4971895;28;20547;-80
2022/09/06 03:48:18;;;;;;;3.88;3.42;;;;;;;16.16;52.83;94512.28;4971153;28;20034;-78
2022/09/06 03:50:50;;;;;;;3.75;2.40;;;;;;;16.28;52.91;94533.03;4969428;28;20038;-78
2022/09/06 03:53:16;;;;;;;3.08;2.60;;;;;;;16.30;52.85;94533.47;4953214;28;20117;-78
2022/09/06 03:55:47;;;;;;;3.78;2.70;;;;;;;16.33;52.92;94540.09;4968922;28;20027;-78
2022/09/06 03:58:14;;;;;;;3.25;2.80;;;;;;;16.21;53.34;94522.81;4971295;28;20124;-80
2022/09/06 04:00:40;;;;;;;3.47;2.65;;;;;;;16.12;53.05;94513.28;4970459;28;20030;-78
2022/09/06 04:03:05;;;;;;;3.67;2.90;;;;;;;16.00;53.09;94505.16;4970830;28;20479;-81
2022/09/06 04:05:30;;;;;;;3.33;2.67;;;;;;;16.06;53.19;94519.97;4952444;28;20033;-81
2022/09/06 04:07:56;;;;;;;3.42;2.83;;;;;;;16.22;53.38;94540.50;4959352;28;20505;-79
2022/09/06 04:10:21;;;;;;;3.00;2.70;;;;;;;16.19;53.58;94546.50;4970158;28;20022;-81
2022/09/06 04:12:47;;;;;;;5.47;3.20;;;;;;;15.75;53.27;94480.16;4969919;28;20037;-79
2022/09/06 04:15:12;;;;;;;3.67;3.08;;;;;;;16.13;53.72;94539.78;4954116;28;20081;-81
2022/09/06 04:17:38;;;;;;;5.18;2.97;;;;;;;16.16;53.68;94528.38;4959965;28;20025;-79
2022/09/06 04:20:04;;;;;;;5.68;2.80;;;;;;;15.96;53.79;94499.69;4969875;28;20102;-81
2022/09/06 04:22:29;;;;;;;8.63;3.47;;;;;;;16.18;53.89;94544.94;4970689;28;20833;-81
2022/09/06 04:24:55;;;;;;;3.40;2.83;;;;;;;16.20;53.83;94542.72;4969288;28;20030;-80
2022/09/06 04:27:20;;;;;;;3.17;2.28;;;;;;;15.87;54.10;94483.69;4971757;28;20023;-79
2022/09/06 04:29:46;;;;;;;4.70;3.17;;;;;;;16.09;53.93;94520.06;4960281;28;20034;-79
2022/09/06 04:32:11;;;;;;;3.08;2.75;;;;;;;16.13;54.17;94521.00;4969865;28;20030;-81
2022/09/06 04:34:36;;;;;;;5.72;2.78;;;;;;;16.28;54.04;94539.16;4969760;28;20031;-82
2022/09/06 04:37:02;;;;;;;3.60;2.67;;;;;;;16.17;54.46;94521.13;4955796;28;20033;-81
2022/09/06 04:39:27;;;;;;;5.15;3.45;;;;;;;16.41;54.64;94541.91;4956969;28;20023;-80
2022/09/06 04:41:53;;;;;;;3.58;2.78;;;;;;;16.44;54.42;94541.22;4973358;28;20042;-81
2022/09/06 04:44:18;;;;;;;4.18;2.97;;;;;;;16.33;54.30;94517.50;4956471;28;20398;-79
2022/09/06 04:46:44;;;;;;;5.18;3.60;;;;;;;16.39;54.58;94506.53;4973536;28;20062;-78
2022/09/06 04:49:09;;;;;;;3.55;2.85;;;;;;;16.36;54.53;94491.13;4959224;28;20054;-79
2022/09/06 04:51:36;;;;;;;4.95;3.20;;;;;;;16.76;54.51;94543.09;4963197;28;20037;-80
2022/09/06 04:54:01;;;;;;;5.18;3.38;;;;;;;16.58;54.40;94510.28;4973046;28;20462;-81
2022/09/06 04:56:27;;;;;;;3.53;3.17;;;;;;;16.88;54.25;94536.94;4974847;28;20027;-78
2022/09/06 04:58:54;;;;;;;5.43;3.78;;;;;;;16.71;54.14;94501.13;4972590;28;20105;-81
2022/09/06 05:01:20;;;;;;;3.70;3.13;;;;;;;16.77;53.96;94501.66;4962873;28;20018;-81
2022/09/06 05:03:46;;;;;;;5.93;4.07;;;;;;;16.86;53.71;94507.75;4973119;28;20446;-80
2022/09/06 05:06:18;;;;;;;4.72;3.60;;;;;;;16.86;53.54;94499.69;4973122;28;20022;-79
2022/09/06 05:08:43;;;;;;;5.22;3.40;;;;;;;17.16;53.55;94530.59;4973292;28;20033;-78
2022/09/06 05:11:09;;;;;;;4.72;3.33;;;;;;;17.15;53.53;94517.50;4972842;28;20030;-79
2022/09/06 05:13:35;;;;;;;5.63;3.95;;;;;;;17.21;52.84;94526.88;4973176;28;20088;-81
2022/09/06 05:16:03;;;;;;;6.05;4.38;;;;;;;17.33;53.05;94539.53;4973389;28;20031;-81
2022/09/06 05:18:28;;;;;;;7.70;4.63;;;;;;;17.08;52.49;94491.16;4973410;28;20485;-80
2022/09/06 05:20:55;;;;;;;6.53;4.13;;;;;;;17.32;52.53;94522.63;4973410;28;20072;-80
2022/09/06 05:23:21;;;;;;;4.35;3.78;;;;;;;17.19;52.49;94507.63;4970905;28;20025;-79
2022/09/06 05:25:47;;;;;;;4.35;3.65;;;;;;;17.24;52.51;94509.31;4974117;28;20022;-81
2022/09/06 05:28:13;;;;;;;4.88;3.60;;;;;;;17.24;52.67;94503.94;4972936;28;20022;-80
2022/09/06 05:30:40;;;;;;;6.10;3.95;;;;;;;17.51;52.43;94535.47;4972426;28;20022;-79
2022/09/06 05:33:05;;;;;;;7.72;5.00;;;;;;;17.30;52.37;94492.63;4972761;28;20776;-80
2022/09/06 05:35:31;;;;;;;5.53;3.72;;;;;;;17.24;52.33;94477.06;4974048;28;20038;-79
2022/09/06 05:37:56;;;;;;;4.70;3.65;;;;;;;17.66;52.26;94540.16;4972336;28;20570;-77
2022/09/06 05:40:22;;;;;;;4.40;3.67;;;;;;;17.66;52.07;94526.72;4971261;28;20968;-79
2022/09/06 05:42:47;;;;;;;5.68;4.03;;;;;;;17.62;52.01;94517.75;4962025;28;20029;-80
2022/09/06 05:45:13;;;;;;;6.68;4.50;;;;;;;17.59;52.20;94505.78;4971690;28;20081;-77
2022/09/06 05:47:38;;;;;;;4.85;3.58;;;;;;;17.71;52.29;94513.03;4973162;28;20026;-81
2022/09/06 05:50:05;;;;;;;8.00;4.40;;;;;;;17.82;52.29;94535.63;4972578;28;20032;-81
2022/09/06 05:52:33;;;;;;;6.05;3.92;;;;;;;17.88;52.18;94533.50;4961913;28;20031;-80
2022/09/06 05:54:59;;;;;;;8.00;4.50;;;;;;;17.35;51.51;94451.28;4972793;28;20031;-79
2022/09/06 05:57:24;;;;;;;5.28;4.00;;;;;;;17.75;51.26;94505.84;4970697;28;20060;-82
2022/09/06 05:59:52;;;;;;;5.50;3.97;;;;;;;17.59;51.71;94476.19;4971323;28;20670;-79
2022/09/06 06:02:20;;;;;;;5.40;4.47;;;;;;;17.89;51.71;94500.84;4972545;28;20041;-83
2022/09/06 06:04:46;;;;;;;5.53;3.50;;;;;;;18.07;51.04;94520.22;4971800;28;20018;-80
2022/09/06 06:07:11;;;;;;;5.50;4.10;;;;;;;18.08;50.98;94507.56;4971764;28;20038;-80
2022/09/06 06:09:37;;;;;;;5.60;4.20;;;;;;;18.01;51.23;94487.38;4972193;28;20022;-79
2022/09/06 06:12:03;;;;;;;9.13;3.72;;;;;;;18.13;51.01;94486.56;4971929;28;20022;-81
2022/09/06 06:14:29;;;;;;;4.80;4.30;;;;;;;18.21;50.65;94487.50;4970648;28;20037;-79
2022/09/06 06:16:54;;;;;;;5.53;4.63;;;;;;;18.44;50.60;94512.72;4972383;28;20034;-81
2022/09/06 06:19:20;;;;;;;6.15;3.95;;;;;;;18.39;50.72;94499.53;4972286;28;20026;-82
2022/09/06 06:21:45;;;;;;;7.47;4.72;;;;;;;18.45;49.98;94509.72;4971955;28;20034;-79
2022/09/06 06:24:11;;;;;;;7.53;4.57;;;;;;;18.55;50.41;94508.41;4971625;28;20053;-79
2022/09/06 06:26:36;;;;;;;11.15;4.97;;;;;;;18.50;49.95;94500.59;4971034;28;20026;-80
2022/09/06 06:29:06;;;;;;;6.50;4.40;;;;;;;18.49;50.60;94490.94;4954886;28;20029;-79
2022/09/06 06:31:32;;;;;;;6.10;4.07;;;;;;;18.55;50.06;94492.25;4970927;28;20046;-79
2022/09/06 06:34:01;;;;;;;5.63;4.25;;;;;;;18.36;49.96;94465.22;4972915;28;20078;-79
2022/09/06 06:36:30;;;;;;;5.82;4.28;;;;;;;18.63;50.20;94488.59;4972896;28;20067;-80
2022/09/06 06:38:56;;;;;;;7.78;4.63;;;;;;;18.64;49.88;94489.38;4971701;28;20756;-80
2022/09/06 06:41:24;;;;;;;5.75;4.03;;;;;;;18.74;49.96;94511.22;4971204;28;20433;-79
2022/09/06 06:44:01;;;;;;;6.57;4.65;;;;;;;18.56;49.50;94493.81;4971376;28;20061;-80
2022/09/06 06:46:30;;;;;;;6.05;4.50;;;;;;;18.50;49.68;94473.66;4970465;28;20025;-78
2022/09/06 06:48:55;;;;;;;7.68;4.30;;;;;;;18.65;49.71;94504.41;4970620;28;20034;-80
2022/09/06 06:51:23;;;;;;;7.40;4.53;;;;;;;18.39;50.65;94459.91;4970612;28;20034;-79
2022/09/06 06:53:48;;;;;;;11.23;5.45;;;;;;;18.25;50.87;94429.16;4970526;28;20030;-79
2022/09/06 06:56:18;;;;;;;8.00;4.85;;;;;;;18.86;51.13;94507.69;4961801;28;20033;-79
2022/09/06 06:58:46;;;;;;;5.45;4.18;;;;;;;18.99;50.65;94511.84;4971625;28;20082;-81
2022/09/06 07:01:12;;;;;;;7.63;5.43;;;;;;;19.00;49.78;94489.16;4971116;28;20971;-78
2022/09/06 07:03:38;;;;;;;11.77;4.85;;;;;;;19.02;49.40;94491.50;4970434;28;20026;-79
2022/09/06 07:06:04;;;;;;;9.50;5.60;;;;;;;19.11;49.23;94492.09;4970701;28;20470;-81
2022/09/06 07:08:29;;;;;;;6.63;4.30;;;;;;;19.16;48.96;94489.13;4970932;28;20501;-80
2022/09/06 07:10:55;;;;;;;6.68;4.05;;;;;;;19.38;49.05;94509.25;4970412;28;20034;-80
2022/09/06 07:13:20;;;;;;;5.93;4.75;;;;;;;19.34;48.92;94495.69;4961518;28;20027;-80
2022/09/06 07:15:45;;;;;;;5.90;4.82;;;;;;;19.44;48.59;94522.13;4970512;28;20055;-79
2022/09/06 07:18:14;;;;;;;8.18;4.90;;;;;;;19.45;48.38;94523.72;4955482;28;20030;-78
2022/09/06 07:20:39;;;;;;;6.43;4.70;;;;;;;19.39;48.22;94514.31;4971095;28;20034;-79
2022/09/06 07:23:04;;;;;;;7.07;4.97;;;;;;;19.42;48.01;94529.00;4952339;28;20026;-78
2022/09/06 07:25:30;;;;;;;9.05;4.97;;;;;;;19.37;48.13;94511.16;4970552;28;20399;-78
2022/09/06 07:28:02;;;;;;;8.43;4.65;;;;;;;19.40;48.29;94515.88;4971651;28;20030;-78
2022/09/06 07:30:30;;;;;;;7.13;4.70;;;;;;;19.41;48.44;94514.72;4956732;28;20026;-77
2022/09/06 07:32:57;;;;;;;6.22;5.00;;;;;;;19.10;48.58;94458.16;4969890;28;20046;-78
2022/09/06 07:35:25;;;;;;;5.88;4.70;;;;;;;19.32;48.22;94497.94;4968614;28;20519;-79
2022/09/06 07:37:55;;;;;;;6.15;4.82;;;;;;;19.58;48.57;94525.16;4970566;28;20476;-79
2022/09/06 07:40:21;;;;;;;6.88;4.97;;;;;;;19.49;48.78;94500.31;4962944;28;20030;-80
2022/09/06 07:42:46;;;;;;;7.90;5.28;;;;;;;19.60;48.50;94514.78;4954660;28;20031;-79
2022/09/06 07:45:12;;;;;;;13.32;6.78;;;;;;;19.62;48.24;94507.13;4969319;28;20106;-80
2022/09/06 07:47:37;;;;;;;9.75;5.93;;;;;;;19.81;48.51;94536.03;4970685;28;20037;-79
2022/09/06 07:50:04;;;;;;;5.85;4.70;;;;;;;19.60;48.04;94493.19;4955043;28;20570;-82
2022/09/06 07:52:29;;;;;;;8.90;4.57;;;;;;;19.87;47.93;94518.44;4971559;28;20027;-79
2022/09/06 07:54:55;;;;;;;7.20;5.20;;;;;;;19.33;47.92;94429.41;4971367;28;20037;-81
2022/09/06 07:57:22;;;;;;;8.93;5.07;;;;;;;19.96;48.24;94520.94;4969406;28;20109;-80
2022/09/06 07:59:47;;;;;;;6.22;5.18;;;;;;;19.89;48.13;94497.28;4955049;28;20279;-78
2022/09/06 08:02:13;;;;;;;8.48;4.43;;;;;;;19.83;48.19;94495.22;4968949;28;20042;-80
2022/09/06 08:04:39;;;;;;;8.02;5.47;;;;;;;19.94;47.98;94517.81;4971072;28;20044;-81
2022/09/06 08:07:05;;;;;;;8.13;5.65;;;;;;;19.67;47.94;94469.06;4971756;28;20057;-79
2022/09/06 08:09:31;;;;;;;7.50;4.40;;;;;;;20.02;47.97;94506.81;4969553;28;20830;-81
2022/09/06 08:11:57;;;;;;;7.72;4.60;;;;;;;19.86;48.51;94472.91;4970575;28;20049;-79
2022/09/06 08:14:22;;;;;;;6.13;4.65;;;;;;;20.06;47.62;94504.16;4971931;28;20026;-80
2022/09/06 08:16:48;;;;;;;6.38;4.95;;;;;;;19.97;47.39;94479.31;4975833;28;20069;-79
2022/09/06 08:19:14;;;;;;;5.45;4.00;;;;;;;19.96;47.23;94466.94;4974245;28;20030;-81
2022/09/06 08:21:39;;;;;;;5.93;4.45;;;;;;;20.14;46.88;94495.06;4974185;28;20030;-79
2022/09/06 08:24:07;;;;;;;6.05;4.07;;;;;;;20.32;46.94;94514.34;4975963;28;20026;-80
2022/09/06 08:26:34;;;;;;;5.88;4.00;;;;;;;20.12;45.96;94481.13;4974871;28;20045;-81
2022/09/06 08:29:02;;;;;;;4.50;3.92;;;;;;;20.16;46.52;94480.09;4965456;28;20026;-79
2022/09/06 08:31:29;;;;;;;7.10;4.50;;;;;;;20.36;45.51;94510.56;4972920;28;20026;-80
2022/09/06 08:33:55;;;;;;;5.88;4.80;;;;;;;20.32;46.46;94493.50;4972854;28;20061;-79
2022/09/06 08:36:21;;;;;;;6.97;4.68;;;;;;;20.34;46.41;94502.03;4958975;28;20045;-79
2022/09/06 08:38:47;;;;;;;6.95;5.07;;;;;;;20.28;46.83;94481.09;4955891;28;20491;-78
2022/09/06 08:41:15;;;;;;;4.88;4.32;;;;;;;20.40;46.45;94491.72;4975285;28;20026;-80
2022/09/06 08:44:03;;;;;;;6.55;4.88;;;;;;;20.28;46.68;94472.97;4973501;28;20034;-77
2022/09/06 08:46:36;;;;;;;6.60;4.32;;;;;;;20.07;47.15;94457.91;4957839;28;20110;-78
2022/09/06 08:49:03;;;;;;;5.97;4.13;;;;;;;20.03;46.26;94450.88;4957760;28;20268;-78
2022/09/06 08:51:43;;;;;;;3.97;3.58;;;;;;;20.14;45.09;94457.28;4973969;28;20355;-79
2022/09/06 08:54:32;;;;;;;5.20;3.92;;;;;;;20.24;45.25;94470.19;4956833;28;20149;-77
2022/09/06 08:57:36;;;;;;;4.93;3.63;;;;;;;20.34;45.41;94479.63;4971790;28;20078;-77
2022/09/06 09:00:12;;;;;;;6.72;4.85;;;;;;;20.36;45.03;94474.66;4929987;28;20092;-77
2022/09/06 09:02:44;;;;;;;5.15;3.03;;;;;;;20.44;44.16;94474.41;4971406;28;20113;-77
2022/09/06 09:05:24;;;;;;;5.07;3.65;;;;;;;20.47;44.89;94462.13;4972677;28;20022;-78
2022/09/06 09:07:55;;;;;;;4.28;3.70;;;;;;;20.52;43.93;94461.81;4973579;28;20084;-78
2022/09/06 09:10:27;;;;;;;7.07;3.20;;;;;;;20.54;43.99;94454.13;4975318;28;20918;-77
2022/09/06 09:12:53;;;;;;;4.28;3.65;;;;;;;20.62;43.03;94460.44;4972024;28;20026;-79
2022/09/06 09:15:20;;;;;;;3.70;3.10;;;;;;;20.56;43.16;94435.66;4971892;28;20387;-79
2022/09/06 09:17:48;;;;;;;3.90;3.50;;;;;;;20.71;43.73;94442.06;4972520;28;20113;-80
2022/09/06 09:20:14;;;;;;;3.90;3.38;;;;;;;20.36;42.41;94388.22;4972486;28;20082;-79
2022/09/06 09:22:40;;;;;;;4.07;3.63;;;;;;;20.58;42.57;94409.81;4973118;28;20571;-80
2022/09/06 09:25:08;;;;;;;4.60;3.78;;;;;;;20.65;41.89;94411.06;4972850;28;20023;-80
2022/09/06 09:27:35;;;;;;;4.40;3.45;;;;;;;20.78;41.86;94420.53;4972598;28;20129;-79
2022/09/06 09:30:05;;;;;;;5.00;3.72;;;;;;;20.83;42.48;94417.53;4973991;28;20034;-79
2022/09/06 09:32:34;;;;;;;3.72;3.30;;;;;;;21.00;42.62;94433.28;4971584;28;20081;-79
2022/09/06 09:35:18;;;;;;;4.53;3.60;;;;;;;21.05;42.65;94435.66;4973036;28;20073;-77
2022/09/06 09:37:45;;;;;;;8.90;3.80;;;;;;;20.78;42.26;94383.47;4973962;28;20398;-79
2022/09/06 09:40:26;;;;;;;5.65;4.25;;;;;;;21.09;43.55;94428.38;4972024;28;20735;-78
2022/09/06 09:42:53;;;;;;;3.95;3.40;;;;;;;21.10;42.69;94416.44;4972217;28;20034;-77
2022/09/06 09:45:24;;;;;;;4.25;3.05;;;;;;;21.15;42.13;94401.81;4971266;28;20034;-77
2022/09/06 09:47:50;;;;;;;6.00;4.00;;;;;;;21.31;42.45;94422.13;4971038;28;20065;-77
2022/09/06 09:50:33;;;;;;;6.13;3.80;;;;;;;21.25;42.22;94423.59;4972809;28;20122;-80
2022/09/06 09:53:11;;;;;;;5.55;3.50;;;;;;;21.03;43.41;94386.56;4972183;28;20022;-77
2022/09/06 09:55:38;;;;;;;4.22;3.83;;;;;;;21.36;42.41;94413.69;4954806;28;20033;-77
2022/09/06 09:58:05;;;;;;;4.68;3.78;;;;;;;21.35;41.88;94401.31;4971467;28;20053;-77
2022/09/06 10:00:38;;;;;;;5.50;3.53;;;;;;;21.41;41.70;94402.53;4971754;28;20038;-77
2022/09/06 10:03:16;;;;;;;6.40;3.63;;;;;;;21.24;41.27;94376.03;4961580;28;20039;-77
2022/09/06 10:05:52;;;;;;;3.42;3.08;;;;;;;21.48;41.03;94409.19;4956392;28;20022;-77
2022/09/06 10:08:22;;;;;;;3.40;3.08;;;;;;;21.48;41.40;94403.78;4971125;28;20041;-78
2022/09/06 10:10:48;;;;;;;4.35;3.35;;;;;;;21.40;41.24;94387.47;4958464;28;20546;-79
2022/09/06 10:13:19;;;;;;;5.75;3.42;;;;;;;21.48;41.42;94376.72;4972735;28;20023;-79
2022/09/06 10:15:45;;;;;;;3.95;3.30;;;;;;;21.45;41.85;94360.09;4973782;28;20152;-77
2022/09/06 10:18:37;;;;;;;3.28;2.97;;;;;;;21.80;40.83;94392.19;4952272;28;20712;-79
2022/09/06 10:21:10;;;;;;;3.75;2.90;;;;;;;21.75;38.92;94402.59;4971416;28;20019;-80
2022/09/06 10:23:47;;;;;;;5.05;3.10;;;;;;;21.74;41.58;94396.41;4956434;28;20045;-80
2022/09/06 10:26:40;;;;;;;4.72;3.70;;;;;;;21.41;40.71;94367.34;4970369;28;20069;-79
2022/09/06 10:29:10;;;;;;;4.05;3.30;;;;;;;21.46;41.19;94364.31;4971371;28;20157;-77
2022/09/06 10:31:38;;;;;;;4.50;3.83;;;;;;;21.73;40.69;94384.03;4961734;28;20034;-80
2022/09/06 10:34:16;;;;;;;6.05;3.53;;;;;;;21.80;39.48;94386.03;4971134;28;20050;-79
2022/09/06 10:37:03;;;;;;;3.78;3.38;;;;;;;21.75;38.43;94389.84;4955776;28;20056;-80
2022/09/06 10:39:45;;;;;;;3.08;2.58;;;;;;;21.53;38.48;94349.34;4970802;28;20498;-79
2022/09/06 10:42:23;;;;;;;4.43;2.47;;;;;;;21.70;38.62;94368.53;4955630;28;20034;-78
2022/09/06 10:45:16;;;;;;;3.92;3.13;;;;;;;21.90;37.81;94387.28;4955196;28;20550;-80
2022/09/06 10:47:55;;;;;;;3.47;2.28;;;;;;;21.88;37.11;94369.50;4972409;28;20034;-78
2022/09/06 10:50:47;;;;;;;3.50;2.47;;;;;;;21.94;36.32;94369.94;4963257;28;20062;-81
2022/09/06 10:53:25;;;;;;;3.03;1.98;;;;;;;22.05;35.66;94378.91;4970762;28;20113;-82
2022/09/06 10:56:17;;;;;;;3.92;2.17;;;;;;;22.08;35.33;94366.59;4968354;28;20030;-79
2022/09/06 10:58:47;;;;;;;3.08;2.30;;;;;;;22.00;35.01;94356.84;4970357;28;20038;-80
2022/09/06 11:01:22;;;;;;;3.55;2.53;;;;;;;21.80;36.70;94315.63;4972287;28;20061;-80
2022/09/06 11:03:50;;;;;;;3.28;2.47;;;;;;;22.11;37.02;94350.34;4971310;28;20046;-79
2022/09/06 11:06:18;;;;;;;2.67;2.35;;;;;;;22.23;38.79;94369.09;4969505;28;20081;-79
2022/09/06 11:09:00;;;;;;;4.32;2.60;;;;;;;22.19;40.59;94360.09;4971870;28;20046;-78
2022/09/06 11:11:38;;;;;;;3.65;3.08;;;;;;;22.09;37.97;94351.91;4955504;28;20035;-80
2022/09/06 11:14:09;;;;;;;3.17;2.67;;;;;;;22.02;37.84;94316.59;4954497;28;20026;-78
2022/09/06 11:16:44;;;;;;;2.47;2.15;;;;;;;21.96;38.70;94316.16;4971457;28;20031;-79
2022/09/06 11:19:21;;;;;;;3.10;2.50;;;;;;;21.84;37.61;94330.00;4965414;28;20022;-79
2022/09/06 11:22:08;;;;;;;2.95;2.45;;;;;;;21.84;38.15;94365.97;4971670;28;20053;-81
2022/09/06 11:24:57;;;;;;;4.10;2.17;;;;;;;21.89;37.69;94354.03;4972049;28;20030;-79
2022/09/06 11:27:34;;;;;;;3.40;2.60;;;;;;;22.05;37.78;94356.47;4953049;28;20025;-78
2022/09/06 11:30:02;;;;;;;3.50;2.72;;;;;;;22.08;38.98;94355.75;4952315;28;20418;-80
2022/09/06 11:32:33;;;;;;;3.58;2.63;;;;;;;22.17;37.75;94353.50;4970699;28;20185;-78
2022/09/06 11:35:03;;;;;;;2.70;2.13;;;;;;;22.14;36.87;94338.00;4970516;28;20053;-78
2022/09/06 11:37:38;;;;;;;3.58;2.30;;;;;;;22.17;37.46;94329.91;4972031;28;20027;-79
2022/09/06 11:40:16;;;;;;;2.47;2.05;;;;;;;22.26;38.70;94341.22;4971589;28;20036;-80
2022/09/06 11:42:44;;;;;;;3.60;2.10;;;;;;;22.44;37.16;94348.75;4970838;28;20041;-78
2022/09/06 11:45:09;;;;;;;2.97;2.47;;;;;;;22.51;38.05;94344.16;4968825;28;20085;-81
2022/09/06 11:47:39;;;;;;;2.70;2.13;;;;;;;22.60;36.75;94343.81;4972885;28;20034;-79